Terminal Aerodrome Forecast
Issued by NWS

Home | Current Version | Previous Version | Text Only | Print | Product List | Glossary On
Versions: 1 2 3 4 5 6 7 8 9 10 11 12 13 14 15 16 17 18 19
711
FTUS41 KBTV 200325 AAB
TAFRUT
TAF AMD
KRUT 200325Z 2003/2024 VRB03KT P6SM BKN025 OVC030
      TEMPO 2006/2010 4SM BR BKN010
     FM201200 00000KT P6SM OVC035
     FM201700 VRB03KT P6SM SCT200=

USA.gov is the U.S. government's official web portal to all federal, state and local government web resources and services.